sensor_id;sensor_type;location;lat;lon;timestamp;P1;durP1;ratioP1;P2;durP2;ratioP2
9970;SDS011;5026;51.494;11.974;2024-01-11T00:00:51;60.00;;;22.83;;
9970;SDS011;5026;51.494;11.974;2024-01-11T00:03:19;61.70;;;24.53;;
9970;SDS011;5026;51.494;11.974;2024-01-11T00:05:46;61.63;;;23.83;;
9970;SDS011;5026;51.494;11.974;2024-01-11T00:08:13;66.27;;;24.13;;
9970;SDS011;5026;51.494;11.974;2024-01-11T00:10:40;54.53;;;22.50;;
9970;SDS011;5026;51.494;11.974;2024-01-11T00:13:07;59.00;;;22.43;;
9970;SDS011;5026;51.494;11.974;2024-01-11T00:15:34;52.50;;;21.67;;
9970;SDS011;5026;51.494;11.974;2024-01-11T00:18:00;63.30;;;22.50;;
9970;SDS011;5026;51.494;11.974;2024-01-11T00:20:29;61.47;;;24.07;;
9970;SDS011;5026;51.494;11.974;2024-01-11T00:22:56;61.30;;;22.77;;
9970;SDS011;5026;51.494;11.974;2024-01-11T00:25:23;60.27;;;23.27;;
9970;SDS011;5026;51.494;11.974;2024-01-11T00:27:50;60.03;;;23.60;;
9970;SDS011;5026;51.494;11.974;2024-01-11T00:30:17;56.07;;;22.80;;
9970;SDS011;5026;51.494;11.974;2024-01-11T00:32:43;61.70;;;22.83;;
9970;SDS011;5026;51.494;11.974;2024-01-11T00:35:10;61.93;;;23.90;;
9970;SDS011;5026;51.494;11.974;2024-01-11T00:37:39;62.67;;;23.50;;
9970;SDS011;5026;51.494;11.974;2024-01-11T00:40:06;50.83;;;21.07;;
9970;SDS011;5026;51.494;11.974;2024-01-11T00:42:34;59.03;;;23.10;;
9970;SDS011;5026;51.494;11.974;2024-01-11T00:45:01;61.80;;;21.27;;
9970;SDS011;5026;51.494;11.974;2024-01-11T00:47:28;54.40;;;21.47;;
9970;SDS011;5026;51.494;11.974;2024-01-11T00:49:55;55.30;;;22.30;;
9970;SDS011;5026;51.494;11.974;2024-01-11T00:52:22;47.50;;;19.67;;
9970;SDS011;5026;51.494;11.974;2024-01-11T00:54:50;61.03;;;22.83;;
9970;SDS011;5026;51.494;11.974;2024-01-11T00:57:17;57.53;;;20.13;;
9970;SDS011;5026;51.494;11.974;2024-01-11T00:59:44;58.40;;;22.83;;
9970;SDS011;5026;51.494;11.974;2024-01-11T01:02:11;52.47;;;22.07;;
9970;SDS011;5026;51.494;11.974;2024-01-11T01:04:38;53.80;;;20.77;;
9970;SDS011;5026;51.494;11.974;2024-01-11T01:07:05;50.93;;;20.80;;
9970;SDS011;5026;51.494;11.974;2024-01-11T01:09:32;61.30;;;21.63;;
9970;SDS011;5026;51.494;11.974;2024-01-11T01:12:01;56.97;;;22.20;;
9970;SDS011;5026;51.494;11.974;2024-01-11T01:14:28;60.00;;;22.10;;
9970;SDS011;5026;51.494;11.974;2024-01-11T01:16:55;52.97;;;22.50;;
9970;SDS011;5026;51.494;11.974;2024-01-11T01:19:22;58.53;;;21.70;;
9970;SDS011;5026;51.494;11.974;2024-01-11T01:21:49;54.57;;;21.30;;
9970;SDS011;5026;51.494;11.974;2024-01-11T01:24:16;52.57;;;22.33;;
9970;SDS011;5026;51.494;11.974;2024-01-11T01:26:42;59.77;;;22.53;;
9970;SDS011;5026;51.494;11.974;2024-01-11T01:29:11;57.80;;;22.77;;
9970;SDS011;5026;51.494;11.974;2024-01-11T01:31:38;59.13;;;22.63;;
9970;SDS011;5026;51.494;11.974;2024-01-11T01:34:06;67.67;;;22.43;;
9970;SDS011;5026;51.494;11.974;2024-01-11T01:36:33;58.07;;;20.87;;
9970;SDS011;5026;51.494;11.974;2024-01-11T01:39:00;59.23;;;23.20;;
9970;SDS011;5026;51.494;11.974;2024-01-11T01:41:28;67.47;;;23.63;;
9970;SDS011;5026;51.494;11.974;2024-01-11T01:43:55;58.27;;;20.23;;
9970;SDS011;5026;51.494;11.974;2024-01-11T01:46:23;66.73;;;23.33;;
9970;SDS011;5026;51.494;11.974;2024-01-11T01:48:52;57.67;;;22.10;;
9970;SDS011;5026;51.494;11.974;2024-01-11T01:51:21;53.53;;;21.87;;
9970;SDS011;5026;51.494;11.974;2024-01-11T01:53:48;59.20;;;22.70;;
9970;SDS011;5026;51.494;11.974;2024-01-11T01:56:16;56.87;;;21.53;;
9970;SDS011;5026;51.494;11.974;2024-01-11T01:58:44;52.97;;;20.97;;
9970;SDS011;5026;51.494;11.974;2024-01-11T02:01:11;46.90;;;20.27;;
9970;SDS011;5026;51.494;11.974;2024-01-11T02:03:41;53.50;;;21.30;;
9970;SDS011;5026;51.494;11.974;2024-01-11T02:06:09;56.40;;;21.03;;
9970;SDS011;5026;51.494;11.974;2024-01-11T02:08:36;56.70;;;21.67;;
9970;SDS011;5026;51.494;11.974;2024-01-11T02:11:04;59.20;;;23.67;;
9970;SDS011;5026;51.494;11.974;2024-01-11T02:13:31;63.60;;;23.97;;
9970;SDS011;5026;51.494;11.974;2024-01-11T02:15:58;52.60;;;22.20;;
9970;SDS011;5026;51.494;11.974;2024-01-11T02:18:25;49.70;;;19.83;;
9970;SDS011;5026;51.494;11.974;2024-01-11T02:20:54;46.03;;;20.23;;
9970;SDS011;5026;51.494;11.974;2024-01-11T02:23:21;53.00;;;20.27;;
9970;SDS011;5026;51.494;11.974;2024-01-11T02:25:53;50.00;;;20.90;;
9970;SDS011;5026;51.494;11.974;2024-01-11T02:28:20;57.27;;;21.37;;
9970;SDS011;5026;51.494;11.974;2024-01-11T02:30:47;59.27;;;22.40;;
9970;SDS011;5026;51.494;11.974;2024-01-11T02:33:14;56.37;;;18.43;;
9970;SDS011;5026;51.494;11.974;2024-01-11T02:35:43;51.43;;;20.30;;
9970;SDS011;5026;51.494;11.974;2024-01-11T02:38:10;57.27;;;22.20;;
9970;SDS011;5026;51.494;11.974;2024-01-11T02:40:37;59.70;;;22.33;;
9970;SDS011;5026;51.494;11.974;2024-01-11T02:43:10;51.60;;;20.13;;
9970;SDS011;5026;51.494;11.974;2024-01-11T02:45:38;52.33;;;20.80;;
9970;SDS011;5026;51.494;11.974;2024-01-11T02:48:05;54.90;;;21.30;;
9970;SDS011;5026;51.494;11.974;2024-01-11T02:50:32;60.47;;;22.37;;
9970;SDS011;5026;51.494;11.974;2024-01-11T02:52:59;56.27;;;21.17;;
9970;SDS011;5026;51.494;11.974;2024-01-11T02:55:26;55.83;;;21.50;;
9970;SDS011;5026;51.494;11.974;2024-01-11T02:57:53;50.70;;;19.50;;
9970;SDS011;5026;51.494;11.974;2024-01-11T03:00:21;56.20;;;22.53;;
9970;SDS011;5026;51.494;11.974;2024-01-11T03:02:48;54.20;;;20.07;;
9970;SDS011;5026;51.494;11.974;2024-01-11T03:05:15;54.23;;;21.87;;
9970;SDS011;5026;51.494;11.974;2024-01-11T03:07:42;49.23;;;19.30;;
9970;SDS011;5026;51.494;11.974;2024-01-11T03:10:09;52.77;;;19.50;;
9970;SDS011;5026;51.494;11.974;2024-01-11T03:12:36;65.07;;;21.80;;
9970;SDS011;5026;51.494;11.974;2024-01-11T03:15:03;49.57;;;19.37;;
9970;SDS011;5026;51.494;11.974;2024-01-11T03:17:32;50.80;;;21.47;;
9970;SDS011;5026;51.494;11.974;2024-01-11T03:20:00;59.43;;;21.17;;
9970;SDS011;5026;51.494;11.974;2024-01-11T03:22:28;55.27;;;22.80;;
9970;SDS011;5026;51.494;11.974;2024-01-11T03:24:55;49.10;;;20.63;;
9970;SDS011;5026;51.494;11.974;2024-01-11T03:27:22;60.53;;;21.80;;
9970;SDS011;5026;51.494;11.974;2024-01-11T03:29:49;51.17;;;21.00;;
9970;SDS011;5026;51.494;11.974;2024-01-11T03:32:16;53.13;;;21.87;;
9970;SDS011;5026;51.494;11.974;2024-01-11T03:34:45;55.60;;;20.30;;
9970;SDS011;5026;51.494;11.974;2024-01-11T03:37:12;51.13;;;20.67;;
9970;SDS011;5026;51.494;11.974;2024-01-11T03:39:39;46.93;;;20.10;;
9970;SDS011;5026;51.494;11.974;2024-01-11T03:42:06;64.10;;;22.23;;
9970;SDS011;5026;51.494;11.974;2024-01-11T03:44:33;64.77;;;21.80;;
9970;SDS011;5026;51.494;11.974;2024-01-11T03:47:02;51.80;;;19.97;;
9970;SDS011;5026;51.494;11.974;2024-01-11T03:49:29;51.17;;;22.10;;
9970;SDS011;5026;51.494;11.974;2024-01-11T03:51:57;53.77;;;19.87;;
9970;SDS011;5026;51.494;11.974;2024-01-11T03:54:24;48.20;;;19.53;;
9970;SDS011;5026;51.494;11.974;2024-01-11T03:56:51;53.47;;;20.43;;
9970;SDS011;5026;51.494;11.974;2024-01-11T03:59:18;55.87;;;20.43;;
9970;SDS011;5026;51.494;11.974;2024-01-11T04:01:45;55.77;;;19.90;;
9970;SDS011;5026;51.494;11.974;2024-01-11T04:04:12;44.90;;;18.13;;
9970;SDS011;5026;51.494;11.974;2024-01-11T04:06:39;51.80;;;19.57;;
9970;SDS011;5026;51.494;11.974;2024-01-11T04:09:07;47.37;;;21.40;;
9970;SDS011;5026;51.494;11.974;2024-01-11T04:11:34;55.03;;;20.93;;
9970;SDS011;5026;51.494;11.974;2024-01-11T04:14:01;53.13;;;22.03;;
9970;SDS011;5026;51.494;11.974;2024-01-11T04:16:28;54.77;;;21.77;;
9970;SDS011;5026;51.494;11.974;2024-01-11T04:18:55;49.77;;;20.07;;
9970;SDS011;5026;51.494;11.974;2024-01-11T04:21:22;51.43;;;20.77;;
9970;SDS011;5026;51.494;11.974;2024-01-11T04:23:49;53.93;;;21.77;;
9970;SDS011;5026;51.494;11.974;2024-01-11T04:26:18;43.80;;;19.70;;
9970;SDS011;5026;51.494;11.974;2024-01-11T04:28:45;51.17;;;20.33;;
9970;SDS011;5026;51.494;11.974;2024-01-11T04:31:12;51.17;;;22.07;;
9970;SDS011;5026;51.494;11.974;2024-01-11T04:33:40;59.43;;;22.37;;
9970;SDS011;5026;51.494;11.974;2024-01-11T04:36:07;55.53;;;19.50;;
9970;SDS011;5026;51.494;11.974;2024-01-11T04:38:34;54.07;;;20.87;;
9970;SDS011;5026;51.494;11.974;2024-01-11T04:41:02;63.53;;;23.07;;
9970;SDS011;5026;51.494;11.974;2024-01-11T04:43:35;52.60;;;20.93;;
9970;SDS011;5026;51.494;11.974;2024-01-11T04:46:03;54.73;;;22.93;;
9970;SDS011;5026;51.494;11.974;2024-01-11T04:48:38;55.30;;;19.33;;
9970;SDS011;5026;51.494;11.974;2024-01-11T04:51:05;47.10;;;20.53;;
9970;SDS011;5026;51.494;11.974;2024-01-11T04:53:35;57.83;;;21.73;;
9970;SDS011;5026;51.494;11.974;2024-01-11T04:56:03;48.97;;;19.27;;
9970;SDS011;5026;51.494;11.974;2024-01-11T04:58:30;49.07;;;21.20;;
9970;SDS011;5026;51.494;11.974;2024-01-11T05:00:59;46.07;;;19.77;;
9970;SDS011;5026;51.494;11.974;2024-01-11T05:03:27;55.27;;;21.13;;
9970;SDS011;5026;51.494;11.974;2024-01-11T05:05:54;48.27;;;21.10;;
9970;SDS011;5026;51.494;11.974;2024-01-11T05:08:21;54.77;;;21.97;;
9970;SDS011;5026;51.494;11.974;2024-01-11T05:10:48;56.53;;;19.67;;
9970;SDS011;5026;51.494;11.974;2024-01-11T05:13:15;54.23;;;21.60;;
9970;SDS011;5026;51.494;11.974;2024-01-11T05:15:43;51.37;;;19.10;;
9970;SDS011;5026;51.494;11.974;2024-01-11T05:18:11;51.73;;;22.47;;
9970;SDS011;5026;51.494;11.974;2024-01-11T05:20:38;53.77;;;20.43;;
9970;SDS011;5026;51.494;11.974;2024-01-11T05:23:06;43.67;;;18.50;;
9970;SDS011;5026;51.494;11.974;2024-01-11T05:25:33;52.43;;;21.37;;
9970;SDS011;5026;51.494;11.974;2024-01-11T05:28:00;56.10;;;20.90;;
9970;SDS011;5026;51.494;11.974;2024-01-11T05:30:28;57.67;;;20.87;;
9970;SDS011;5026;51.494;11.974;2024-01-11T05:32:55;61.47;;;21.53;;
9970;SDS011;5026;51.494;11.974;2024-01-11T05:35:23;50.00;;;20.50;;
9970;SDS011;5026;51.494;11.974;2024-01-11T05:37:52;60.10;;;23.10;;
9970;SDS011;5026;51.494;11.974;2024-01-11T05:40:20;50.03;;;19.40;;
9970;SDS011;5026;51.494;11.974;2024-01-11T05:42:47;52.43;;;20.03;;
9970;SDS011;5026;51.494;11.974;2024-01-11T05:45:14;51.57;;;21.43;;
9970;SDS011;5026;51.494;11.974;2024-01-11T05:47:42;54.77;;;21.70;;
9970;SDS011;5026;51.494;11.974;2024-01-11T05:50:09;50.50;;;20.37;;
9970;SDS011;5026;51.494;11.974;2024-01-11T05:52:39;58.93;;;20.73;;
9970;SDS011;5026;51.494;11.974;2024-01-11T05:55:06;59.17;;;21.27;;
9970;SDS011;5026;51.494;11.974;2024-01-11T05:57:33;50.93;;;20.33;;
9970;SDS011;5026;51.494;11.974;2024-01-11T06:00:00;44.97;;;20.23;;
9970;SDS011;5026;51.494;11.974;2024-01-11T06:02:28;52.33;;;21.37;;
9970;SDS011;5026;51.494;11.974;2024-01-11T06:04:56;48.60;;;20.03;;
9970;SDS011;5026;51.494;11.974;2024-01-11T06:07:23;56.43;;;21.67;;
9970;SDS011;5026;51.494;11.974;2024-01-11T06:09:51;48.93;;;19.93;;
9970;SDS011;5026;51.494;11.974;2024-01-11T06:12:18;60.47;;;22.47;;
9970;SDS011;5026;51.494;11.974;2024-01-11T06:14:45;57.13;;;23.33;;
9970;SDS011;5026;51.494;11.974;2024-01-11T06:17:13;57.47;;;20.50;;
9970;SDS011;5026;51.494;11.974;2024-01-11T06:19:39;53.80;;;20.57;;
9970;SDS011;5026;51.494;11.974;2024-01-11T06:22:06;47.60;;;20.80;;
9970;SDS011;5026;51.494;11.974;2024-01-11T06:24:33;58.07;;;21.07;;
9970;SDS011;5026;51.494;11.974;2024-01-11T06:27:02;42.97;;;19.97;;
9970;SDS011;5026;51.494;11.974;2024-01-11T06:29:29;56.20;;;22.27;;
9970;SDS011;5026;51.494;11.974;2024-01-11T06:31:55;49.07;;;21.33;;
9970;SDS011;5026;51.494;11.974;2024-01-11T06:34:22;53.33;;;20.97;;
9970;SDS011;5026;51.494;11.974;2024-01-11T06:36:49;53.10;;;21.53;;
9970;SDS011;5026;51.494;11.974;2024-01-11T06:39:16;50.57;;;21.20;;
9970;SDS011;5026;51.494;11.974;2024-01-11T06:41:43;50.60;;;21.47;;
9970;SDS011;5026;51.494;11.974;2024-01-11T06:44:12;49.43;;;20.60;;
9970;SDS011;5026;51.494;11.974;2024-01-11T06:46:39;56.47;;;20.97;;
9970;SDS011;5026;51.494;11.974;2024-01-11T06:49:06;52.50;;;20.80;;
9970;SDS011;5026;51.494;11.974;2024-01-11T06:51:33;56.77;;;21.57;;
9970;SDS011;5026;51.494;11.974;2024-01-11T06:54:00;54.67;;;21.47;;
9970;SDS011;5026;51.494;11.974;2024-01-11T06:56:27;49.13;;;20.77;;
9970;SDS011;5026;51.494;11.974;2024-01-11T06:58:54;52.00;;;20.93;;
9970;SDS011;5026;51.494;11.974;2024-01-11T07:01:23;59.30;;;22.60;;
9970;SDS011;5026;51.494;11.974;2024-01-11T07:03:50;55.10;;;21.73;;
9970;SDS011;5026;51.494;11.974;2024-01-11T07:06:17;65.33;;;23.23;;
9970;SDS011;5026;51.494;11.974;2024-01-11T07:08:48;58.00;;;23.07;;
9970;SDS011;5026;51.494;11.974;2024-01-11T07:11:15;55.30;;;21.87;;
9970;SDS011;5026;51.494;11.974;2024-01-11T07:13:42;55.27;;;22.30;;
9970;SDS011;5026;51.494;11.974;2024-01-11T07:16:09;58.20;;;21.67;;
9970;SDS011;5026;51.494;11.974;2024-01-11T07:18:38;59.57;;;23.57;;
9970;SDS011;5026;51.494;11.974;2024-01-11T07:21:05;63.50;;;24.23;;
9970;SDS011;5026;51.494;11.974;2024-01-11T07:23:32;57.97;;;22.47;;
9970;SDS011;5026;51.494;11.974;2024-01-11T07:25:59;54.27;;;22.77;;
9970;SDS011;5026;51.494;11.974;2024-01-11T07:28:26;59.33;;;24.47;;
9970;SDS011;5026;51.494;11.974;2024-01-11T07:30:53;51.57;;;21.67;;
9970;SDS011;5026;51.494;11.974;2024-01-11T07:33:20;53.93;;;21.27;;
9970;SDS011;5026;51.494;11.974;2024-01-11T07:35:48;63.73;;;22.90;;
9970;SDS011;5026;51.494;11.974;2024-01-11T07:38:15;55.60;;;23.27;;
9970;SDS011;5026;51.494;11.974;2024-01-11T07:40:42;59.67;;;23.17;;
9970;SDS011;5026;51.494;11.974;2024-01-11T07:43:09;47.83;;;21.27;;
9970;SDS011;5026;51.494;11.974;2024-01-11T07:45:37;69.60;;;24.10;;
9970;SDS011;5026;51.494;11.974;2024-01-11T07:48:04;53.27;;;22.37;;
9970;SDS011;5026;51.494;11.974;2024-01-11T07:50:31;61.93;;;23.40;;
9970;SDS011;5026;51.494;11.974;2024-01-11T07:53:00;57.27;;;22.57;;
9970;SDS011;5026;51.494;11.974;2024-01-11T07:55:27;60.30;;;22.47;;
9970;SDS011;5026;51.494;11.974;2024-01-11T07:57:54;53.73;;;23.43;;
9970;SDS011;5026;51.494;11.974;2024-01-11T08:00:21;62.50;;;24.53;;
9970;SDS011;5026;51.494;11.974;2024-01-11T08:02:48;64.17;;;25.53;;
9970;SDS011;5026;51.494;11.974;2024-01-11T08:05:15;57.50;;;22.93;;
9970;SDS011;5026;51.494;11.974;2024-01-11T08:07:42;60.10;;;25.93;;
9970;SDS011;5026;51.494;11.974;2024-01-11T08:10:11;53.50;;;23.67;;
9970;SDS011;5026;51.494;11.974;2024-01-11T08:12:38;61.20;;;25.17;;
9970;SDS011;5026;51.494;11.974;2024-01-11T08:15:05;62.43;;;27.03;;
9970;SDS011;5026;51.494;11.974;2024-01-11T08:17:37;56.63;;;23.27;;
9970;SDS011;5026;51.494;11.974;2024-01-11T08:20:05;66.40;;;25.53;;
9970;SDS011;5026;51.494;11.974;2024-01-11T08:22:33;62.47;;;25.87;;
9970;SDS011;5026;51.494;11.974;2024-01-11T08:25:01;62.30;;;26.50;;
9970;SDS011;5026;51.494;11.974;2024-01-11T08:27:31;63.17;;;26.23;;
9970;SDS011;5026;51.494;11.974;2024-01-11T08:29:58;64.60;;;26.23;;
9970;SDS011;5026;51.494;11.974;2024-01-11T08:32:25;65.33;;;27.53;;
9970;SDS011;5026;51.494;11.974;2024-01-11T08:34:52;61.87;;;26.17;;
9970;SDS011;5026;51.494;11.974;2024-01-11T08:37:19;63.80;;;28.47;;
9970;SDS011;5026;51.494;11.974;2024-01-11T08:39:46;68.47;;;28.40;;
9970;SDS011;5026;51.494;11.974;2024-01-11T08:42:13;61.07;;;26.73;;
9970;SDS011;5026;51.494;11.974;2024-01-11T08:44:42;65.20;;;27.67;;
9970;SDS011;5026;51.494;11.974;2024-01-11T08:47:09;71.43;;;28.90;;
9970;SDS011;5026;51.494;11.974;2024-01-11T08:49:36;60.93;;;25.80;;
9970;SDS011;5026;51.494;11.974;2024-01-11T08:52:04;63.43;;;27.63;;
9970;SDS011;5026;51.494;11.974;2024-01-11T08:54:31;58.13;;;27.57;;
9970;SDS011;5026;51.494;11.974;2024-01-11T08:56:59;60.13;;;27.73;;
9970;SDS011;5026;51.494;11.974;2024-01-11T08:59:27;59.43;;;27.93;;
9970;SDS011;5026;51.494;11.974;2024-01-11T09:01:55;57.50;;;27.47;;
9970;SDS011;5026;51.494;11.974;2024-01-11T09:04:22;58.67;;;27.00;;
9970;SDS011;5026;51.494;11.974;2024-01-11T09:06:49;70.47;;;28.03;;
9970;SDS011;5026;51.494;11.974;2024-01-11T09:09:16;62.57;;;28.33;;
9970;SDS011;5026;51.494;11.974;2024-01-11T09:11:43;62.53;;;28.87;;
9970;SDS011;5026;51.494;11.974;2024-01-11T09:14:10;62.57;;;27.87;;
9970;SDS011;5026;51.494;11.974;2024-01-11T09:16:37;65.43;;;27.63;;
9970;SDS011;5026;51.494;11.974;2024-01-11T09:19:07;76.63;;;30.17;;
9970;SDS011;5026;51.494;11.974;2024-01-11T09:21:34;58.60;;;26.93;;
9970;SDS011;5026;51.494;11.974;2024-01-11T09:24:01;68.87;;;28.37;;
9970;SDS011;5026;51.494;11.974;2024-01-11T09:26:28;68.90;;;29.83;;
9970;SDS011;5026;51.494;11.974;2024-01-11T09:28:55;68.40;;;27.80;;
9970;SDS011;5026;51.494;11.974;2024-01-11T09:31:22;59.57;;;27.60;;
9970;SDS011;5026;51.494;11.974;2024-01-11T09:33:49;65.53;;;27.53;;
9970;SDS011;5026;51.494;11.974;2024-01-11T09:36:19;69.40;;;28.87;;
9970;SDS011;5026;51.494;11.974;2024-01-11T09:38:46;65.20;;;27.37;;
9970;SDS011;5026;51.494;11.974;2024-01-11T09:41:14;61.37;;;27.47;;
9970;SDS011;5026;51.494;11.974;2024-01-11T09:43:41;64.60;;;29.40;;
9970;SDS011;5026;51.494;11.974;2024-01-11T09:46:09;63.83;;;28.77;;
9970;SDS011;5026;51.494;11.974;2024-01-11T09:48:38;64.87;;;27.60;;
9970;SDS011;5026;51.494;11.974;2024-01-11T09:51:08;63.90;;;27.37;;
9970;SDS011;5026;51.494;11.974;2024-01-11T09:53:37;64.53;;;28.17;;
9970;SDS011;5026;51.494;11.974;2024-01-11T09:56:05;64.30;;;28.63;;
9970;SDS011;5026;51.494;11.974;2024-01-11T09:58:35;60.83;;;28.70;;
9970;SDS011;5026;51.494;11.974;2024-01-11T10:01:03;60.30;;;26.73;;
9970;SDS011;5026;51.494;11.974;2024-01-11T10:03:35;63.40;;;26.60;;
9970;SDS011;5026;51.494;11.974;2024-01-11T10:06:02;59.07;;;26.47;;
9970;SDS011;5026;51.494;11.974;2024-01-11T10:08:29;60.43;;;26.47;;
9970;SDS011;5026;51.494;11.974;2024-01-11T10:10:58;68.40;;;26.73;;
9970;SDS011;5026;51.494;11.974;2024-01-11T10:13:26;60.70;;;25.80;;
9970;SDS011;5026;51.494;11.974;2024-01-11T10:16:04;67.03;;;27.33;;
9970;SDS011;5026;51.494;11.974;2024-01-11T10:18:32;58.07;;;26.63;;
9970;SDS011;5026;51.494;11.974;2024-01-11T10:20:59;60.50;;;27.00;;
9970;SDS011;5026;51.494;11.974;2024-01-11T10:23:27;60.43;;;27.43;;
9970;SDS011;5026;51.494;11.974;2024-01-11T10:25:55;60.73;;;26.97;;
9970;SDS011;5026;51.494;11.974;2024-01-11T10:28:25;59.23;;;26.43;;
9970;SDS011;5026;51.494;11.974;2024-01-11T10:30:53;57.50;;;27.20;;
9970;SDS011;5026;51.494;11.974;2024-01-11T10:33:21;59.97;;;26.23;;
9970;SDS011;5026;51.494;11.974;2024-01-11T10:35:48;61.53;;;25.63;;
9970;SDS011;5026;51.494;11.974;2024-01-11T10:38:16;62.57;;;27.40;;
9970;SDS011;5026;51.494;11.974;2024-01-11T10:40:45;59.77;;;26.70;;
9970;SDS011;5026;51.494;11.974;2024-01-11T10:43:12;62.80;;;26.97;;
9970;SDS011;5026;51.494;11.974;2024-01-11T10:45:46;57.90;;;25.20;;
9970;SDS011;5026;51.494;11.974;2024-01-11T10:48:19;60.90;;;26.73;;
9970;SDS011;5026;51.494;11.974;2024-01-11T10:50:49;55.20;;;26.37;;
9970;SDS011;5026;51.494;11.974;2024-01-11T10:53:24;55.70;;;25.13;;
9970;SDS011;5026;51.494;11.974;2024-01-11T10:55:55;56.73;;;26.27;;
9970;SDS011;5026;51.494;11.974;2024-01-11T10:58:24;55.00;;;24.97;;
9970;SDS011;5026;51.494;11.974;2024-01-11T11:00:54;57.57;;;24.67;;
9970;SDS011;5026;51.494;11.974;2024-01-11T11:03:22;51.00;;;24.73;;
9970;SDS011;5026;51.494;11.974;2024-01-11T11:05:51;57.70;;;25.27;;
9970;SDS011;5026;51.494;11.974;2024-01-11T11:08:20;51.20;;;23.60;;
9970;SDS011;5026;51.494;11.974;2024-01-11T11:10:56;45.53;;;22.00;;
9970;SDS011;5026;51.494;11.974;2024-01-11T11:13:24;45.20;;;22.23;;
9970;SDS011;5026;51.494;11.974;2024-01-11T11:15:54;53.47;;;21.90;;
9970;SDS011;5026;51.494;11.974;2024-01-11T11:18:22;54.47;;;23.30;;
9970;SDS011;5026;51.494;11.974;2024-01-11T11:20:50;46.97;;;22.60;;
9970;SDS011;5026;51.494;11.974;2024-01-11T11:23:19;45.37;;;22.73;;
9970;SDS011;5026;51.494;11.974;2024-01-11T11:25:46;50.37;;;22.87;;
9970;SDS011;5026;51.494;11.974;2024-01-11T11:28:15;50.07;;;23.40;;
9970;SDS011;5026;51.494;11.974;2024-01-11T11:30:43;52.70;;;23.43;;
9970;SDS011;5026;51.494;11.974;2024-01-11T11:33:17;52.70;;;23.03;;
9970;SDS011;5026;51.494;11.974;2024-01-11T11:35:45;53.67;;;22.40;;
9970;SDS011;5026;51.494;11.974;2024-01-11T11:38:17;50.00;;;23.27;;
9970;SDS011;5026;51.494;11.974;2024-01-11T11:40:45;48.50;;;22.63;;
9970;SDS011;5026;51.494;11.974;2024-01-11T11:43:15;42.37;;;21.07;;
9970;SDS011;5026;51.494;11.974;2024-01-11T11:45:43;46.63;;;21.57;;
9970;SDS011;5026;51.494;11.974;2024-01-11T11:51:21;41.37;;;19.93;;
9970;SDS011;5026;51.494;11.974;2024-01-11T11:53:49;46.50;;;20.83;;
9970;SDS011;5026;51.494;11.974;2024-01-11T11:56:18;50.80;;;21.33;;
9970;SDS011;5026;51.494;11.974;2024-01-11T11:58:46;49.73;;;21.57;;
9970;SDS011;5026;51.494;11.974;2024-01-11T12:01:14;47.27;;;22.97;;
9970;SDS011;5026;51.494;11.974;2024-01-11T12:03:43;45.83;;;21.80;;
9970;SDS011;5026;51.494;11.974;2024-01-11T12:06:16;42.03;;;19.30;;
9970;SDS011;5026;51.494;11.974;2024-01-11T12:08:44;46.30;;;21.50;;
9970;SDS011;5026;51.494;11.974;2024-01-11T12:11:13;55.17;;;24.17;;
9970;SDS011;5026;51.494;11.974;2024-01-11T12:13:40;44.97;;;21.17;;
9970;SDS011;5026;51.494;11.974;2024-01-11T12:16:09;41.60;;;19.17;;
9970;SDS011;5026;51.494;11.974;2024-01-11T12:18:37;42.53;;;19.33;;
9970;SDS011;5026;51.494;11.974;2024-01-11T12:21:04;42.30;;;19.47;;
9970;SDS011;5026;51.494;11.974;2024-01-11T12:23:34;39.90;;;19.27;;
9970;SDS011;5026;51.494;11.974;2024-01-11T12:26:01;38.40;;;19.20;;
9970;SDS011;5026;51.494;11.974;2024-01-11T12:28:30;44.47;;;19.70;;
9970;SDS011;5026;51.494;11.974;2024-01-11T12:30:58;35.50;;;17.50;;
9970;SDS011;5026;51.494;11.974;2024-01-11T12:33:24;39.33;;;18.33;;
9970;SDS011;5026;51.494;11.974;2024-01-11T12:35:53;38.87;;;18.27;;
9970;SDS011;5026;51.494;11.974;2024-01-11T12:38:20;36.17;;;18.10;;
9970;SDS011;5026;51.494;11.974;2024-01-11T12:40:48;38.23;;;17.67;;
9970;SDS011;5026;51.494;11.974;2024-01-11T12:43:15;43.60;;;19.13;;
9970;SDS011;5026;51.494;11.974;2024-01-11T12:45:43;49.70;;;20.27;;
9970;SDS011;5026;51.494;11.974;2024-01-11T12:48:10;44.77;;;20.43;;
9970;SDS011;5026;51.494;11.974;2024-01-11T12:50:39;44.83;;;19.13;;
9970;SDS011;5026;51.494;11.974;2024-01-11T12:53:07;44.20;;;20.13;;
9970;SDS011;5026;51.494;11.974;2024-01-11T12:55:34;49.47;;;20.80;;
9970;SDS011;5026;51.494;11.974;2024-01-11T12:58:07;35.10;;;18.60;;
9970;SDS011;5026;51.494;11.974;2024-01-11T13:00:34;42.33;;;19.27;;
9970;SDS011;5026;51.494;11.974;2024-01-11T13:03:02;41.40;;;20.00;;
9970;SDS011;5026;51.494;11.974;2024-01-11T13:05:30;41.70;;;19.87;;
9970;SDS011;5026;51.494;11.974;2024-01-11T13:08:00;45.63;;;20.47;;
9970;SDS011;5026;51.494;11.974;2024-01-11T13:10:28;41.47;;;19.23;;
9970;SDS011;5026;51.494;11.974;2024-01-11T13:12:58;44.63;;;18.80;;
9970;SDS011;5026;51.494;11.974;2024-01-11T13:15:27;40.53;;;20.10;;
9970;SDS011;5026;51.494;11.974;2024-01-11T13:17:56;40.57;;;19.10;;
9970;SDS011;5026;51.494;11.974;2024-01-11T13:20:24;41.30;;;19.50;;
9970;SDS011;5026;51.494;11.974;2024-01-11T13:23:00;44.17;;;19.70;;
9970;SDS011;5026;51.494;11.974;2024-01-11T13:25:39;44.67;;;20.00;;
9970;SDS011;5026;51.494;11.974;2024-01-11T13:28:06;39.37;;;17.70;;
9970;SDS011;5026;51.494;11.974;2024-01-11T13:30:35;39.93;;;19.33;;
9970;SDS011;5026;51.494;11.974;2024-01-11T13:33:02;40.97;;;19.87;;
9970;SDS011;5026;51.494;11.974;2024-01-11T13:35:29;49.67;;;20.47;;
9970;SDS011;5026;51.494;11.974;2024-01-11T13:37:56;43.37;;;21.13;;
9970;SDS011;5026;51.494;11.974;2024-01-11T13:40:23;44.93;;;21.03;;
9970;SDS011;5026;51.494;11.974;2024-01-11T13:42:50;42.83;;;20.13;;
9970;SDS011;5026;51.494;11.974;2024-01-11T13:45:17;45.23;;;21.60;;
9970;SDS011;5026;51.494;11.974;2024-01-11T13:47:46;53.17;;;21.97;;
9970;SDS011;5026;51.494;11.974;2024-01-11T13:50:13;48.27;;;20.97;;
9970;SDS011;5026;51.494;11.974;2024-01-11T13:52:40;47.50;;;21.43;;
9970;SDS011;5026;51.494;11.974;2024-01-11T13:55:07;41.73;;;20.20;;
9970;SDS011;5026;51.494;11.974;2024-01-11T13:57:36;45.50;;;21.00;;
9970;SDS011;5026;51.494;11.974;2024-01-11T14:00:03;39.40;;;19.03;;
9970;SDS011;5026;51.494;11.974;2024-01-11T14:02:31;40.03;;;19.27;;
9970;SDS011;5026;51.494;11.974;2024-01-11T14:05:00;44.83;;;19.27;;
9970;SDS011;5026;51.494;11.974;2024-01-11T14:07:28;45.63;;;20.00;;
9970;SDS011;5026;51.494;11.974;2024-01-11T14:09:55;39.93;;;18.90;;
9970;SDS011;5026;51.494;11.974;2024-01-11T14:12:23;40.07;;;17.33;;
9970;SDS011;5026;51.494;11.974;2024-01-11T14:14:50;40.30;;;18.00;;
9970;SDS011;5026;51.494;11.974;2024-01-11T14:17:16;37.33;;;17.13;;
9970;SDS011;5026;51.494;11.974;2024-01-11T14:19:43;32.93;;;14.73;;
9970;SDS011;5026;51.494;11.974;2024-01-11T14:22:11;24.60;;;13.40;;
9970;SDS011;5026;51.494;11.974;2024-01-11T14:24:38;24.83;;;12.03;;
9970;SDS011;5026;51.494;11.974;2024-01-11T14:27:05;27.93;;;12.37;;
9970;SDS011;5026;51.494;11.974;2024-01-11T14:29:34;28.60;;;13.27;;
9970;SDS011;5026;51.494;11.974;2024-01-11T14:32:02;27.40;;;13.20;;
9970;SDS011;5026;51.494;11.974;2024-01-11T14:34:29;28.67;;;12.37;;
9970;SDS011;5026;51.494;11.974;2024-01-11T14:36:56;28.27;;;13.83;;
9970;SDS011;5026;51.494;11.974;2024-01-11T14:39:24;25.23;;;11.83;;